sensor_id;sensor_type;location;lat;lon;timestamp;pressure;altitude;pressure_sealevel;temperature;humidity
7335;BME280;3708;42.632;23.378;2023-03-03T00:00:41;94310.31;;;7.94;59.76
7335;BME280;3708;42.632;23.378;2023-03-03T00:03:09;94318.41;;;7.84;59.90
7335;BME280;3708;42.632;23.378;2023-03-03T00:05:37;94303.41;;;7.89;59.49
7335;BME280;3708;42.632;23.378;2023-03-03T00:08:04;94301.16;;;8.05;59.46
7335;BME280;3708;42.632;23.378;2023-03-03T00:10:31;94310.28;;;7.85;59.28
7335;BME280;3708;42.632;23.378;2023-03-03T00:12:59;94305.88;;;7.94;59.43
7335;BME280;3708;42.632;23.378;2023-03-03T00:15:26;94306.09;;;8.06;59.75
7335;BME280;3708;42.632;23.378;2023-03-03T00:17:54;94298.59;;;7.74;60.53
7335;BME280;3708;42.632;23.378;2023-03-03T00:20:34;94305.91;;;8.03;59.78
7335;BME280;3708;42.632;23.378;2023-03-03T00:23:19;94299.63;;;8.04;59.98
7335;BME280;3708;42.632;23.378;2023-03-03T00:25:50;94302.53;;;8.02;59.19
7335;BME280;3708;42.632;23.378;2023-03-03T00:28:23;94302.81;;;7.92;59.52
7335;BME280;3708;42.632;23.378;2023-03-03T00:30:50;94299.09;;;7.85;60.05
7335;BME280;3708;42.632;23.378;2023-03-03T00:33:26;94299.75;;;7.68;60.00
7335;BME280;3708;42.632;23.378;2023-03-03T00:35:54;94296.13;;;7.78;60.40
7335;BME280;3708;42.632;23.378;2023-03-03T00:38:21;94296.66;;;7.88;59.98
7335;BME280;3708;42.632;23.378;2023-03-03T00:40:48;94291.16;;;7.98;59.21
7335;BME280;3708;42.632;23.378;2023-03-03T00:43:21;94282.19;;;8.13;59.40
7335;BME280;3708;42.632;23.378;2023-03-03T00:45:49;94276.97;;;8.13;59.12
7335;BME280;3708;42.632;23.378;2023-03-03T00:48:22;94269.50;;;8.28;58.94
7335;BME280;3708;42.632;23.378;2023-03-03T00:50:50;94268.09;;;8.22;59.04
7335;BME280;3708;42.632;23.378;2023-03-03T00:53:18;94265.22;;;7.62;60.87
7335;BME280;3708;42.632;23.378;2023-03-03T00:55:47;94268.44;;;7.90;60.01
7335;BME280;3708;42.632;23.378;2023-03-03T00:58:14;94263.91;;;8.04;59.48
7335;BME280;3708;42.632;23.378;2023-03-03T01:00:44;94255.31;;;8.12;59.72
7335;BME280;3708;42.632;23.378;2023-03-03T01:03:14;94254.69;;;8.15;59.29
7335;BME280;3708;42.632;23.378;2023-03-03T01:05:41;94251.69;;;8.30;58.90
7335;BME280;3708;42.632;23.378;2023-03-03T01:08:09;94246.69;;;8.42;58.64
7335;BME280;3708;42.632;23.378;2023-03-03T01:10:38;94244.69;;;8.48;58.74
7335;BME280;3708;42.632;23.378;2023-03-03T01:13:07;94247.28;;;8.48;58.33
7335;BME280;3708;42.632;23.378;2023-03-03T01:15:34;94247.16;;;8.44;58.30
7335;BME280;3708;42.632;23.378;2023-03-03T01:18:02;94246.06;;;8.54;58.01
7335;BME280;3708;42.632;23.378;2023-03-03T01:20:29;94242.53;;;8.41;58.03
7335;BME280;3708;42.632;23.378;2023-03-03T01:22:56;94241.94;;;8.44;58.04
7335;BME280;3708;42.632;23.378;2023-03-03T01:25:23;94246.97;;;8.41;58.14
7335;BME280;3708;42.632;23.378;2023-03-03T01:27:49;94245.00;;;8.47;57.85
7335;BME280;3708;42.632;23.378;2023-03-03T01:30:16;94236.53;;;8.41;58.40
7335;BME280;3708;42.632;23.378;2023-03-03T01:32:43;94234.69;;;8.33;58.39
7335;BME280;3708;42.632;23.378;2023-03-03T01:35:11;94229.63;;;8.36;58.62
7335;BME280;3708;42.632;23.378;2023-03-03T01:37:38;94235.25;;;8.21;59.07
7335;BME280;3708;42.632;23.378;2023-03-03T01:40:07;94230.69;;;8.35;58.79
7335;BME280;3708;42.632;23.378;2023-03-03T01:42:38;94227.50;;;8.56;58.24
7335;BME280;3708;42.632;23.378;2023-03-03T01:45:19;94228.75;;;8.67;57.95
7335;BME280;3708;42.632;23.378;2023-03-03T01:47:51;94234.72;;;8.50;57.94
7335;BME280;3708;42.632;23.378;2023-03-03T01:50:29;94229.03;;;8.48;57.88
7335;BME280;3708;42.632;23.378;2023-03-03T01:52:57;94231.97;;;8.55;57.59
7335;BME280;3708;42.632;23.378;2023-03-03T01:55:29;94234.13;;;8.70;57.81
7335;BME280;3708;42.632;23.378;2023-03-03T01:58:02;94234.09;;;8.53;57.86
7335;BME280;3708;42.632;23.378;2023-03-03T02:00:31;94223.34;;;8.46;58.03
7335;BME280;3708;42.632;23.378;2023-03-03T02:02:59;94231.50;;;8.62;57.84
7335;BME280;3708;42.632;23.378;2023-03-03T02:05:28;94223.03;;;8.56;57.69
7335;BME280;3708;42.632;23.378;2023-03-03T02:07:55;94228.41;;;8.42;57.92
7335;BME280;3708;42.632;23.378;2023-03-03T02:10:22;94231.50;;;8.53;57.89
7335;BME280;3708;42.632;23.378;2023-03-03T02:12:51;94224.09;;;8.29;58.35
7335;BME280;3708;42.632;23.378;2023-03-03T02:15:20;94224.19;;;8.24;58.65
7335;BME280;3708;42.632;23.378;2023-03-03T02:17:49;94229.63;;;8.36;58.43
7335;BME280;3708;42.632;23.378;2023-03-03T02:20:27;94226.72;;;8.47;58.18
7335;BME280;3708;42.632;23.378;2023-03-03T02:23:00;94228.88;;;8.44;58.08
7335;BME280;3708;42.632;23.378;2023-03-03T02:25:35;94224.91;;;8.47;57.71
7335;BME280;3708;42.632;23.378;2023-03-03T02:28:05;94231.94;;;8.47;57.70
7335;BME280;3708;42.632;23.378;2023-03-03T02:30:36;94237.31;;;8.59;57.53
7335;BME280;3708;42.632;23.378;2023-03-03T02:33:03;94233.19;;;8.58;57.83
7335;BME280;3708;42.632;23.378;2023-03-03T02:35:32;94230.13;;;8.47;57.71
7335;BME280;3708;42.632;23.378;2023-03-03T02:38:10;94225.34;;;8.40;57.81
7335;BME280;3708;42.632;23.378;2023-03-03T02:40:42;94224.13;;;8.47;57.57
7335;BME280;3708;42.632;23.378;2023-03-03T02:43:13;94228.56;;;8.37;58.00
7335;BME280;3708;42.632;23.378;2023-03-03T02:45:43;94229.31;;;8.38;58.37
7335;BME280;3708;42.632;23.378;2023-03-03T02:48:10;94234.53;;;8.38;58.32
7335;BME280;3708;42.632;23.378;2023-03-03T02:50:37;94229.81;;;8.49;58.19
7335;BME280;3708;42.632;23.378;2023-03-03T02:53:04;94232.41;;;8.49;57.96
7335;BME280;3708;42.632;23.378;2023-03-03T02:55:30;94224.44;;;8.54;57.64
7335;BME280;3708;42.632;23.378;2023-03-03T02:57:57;94225.19;;;8.45;58.09
7335;BME280;3708;42.632;23.378;2023-03-03T03:00:25;94225.81;;;8.51;57.64
7335;BME280;3708;42.632;23.378;2023-03-03T03:02:52;94222.44;;;8.59;57.86
7335;BME280;3708;42.632;23.378;2023-03-03T03:05:19;94224.28;;;8.76;57.77
7335;BME280;3708;42.632;23.378;2023-03-03T03:07:46;94225.19;;;8.63;57.51
7335;BME280;3708;42.632;23.378;2023-03-03T03:10:13;94221.22;;;8.74;57.42
7335;BME280;3708;42.632;23.378;2023-03-03T03:12:40;94217.06;;;8.73;57.82
7335;BME280;3708;42.632;23.378;2023-03-03T03:15:07;94213.84;;;8.76;57.71
7335;BME280;3708;42.632;23.378;2023-03-03T03:17:37;94220.91;;;8.58;57.45
7335;BME280;3708;42.632;23.378;2023-03-03T03:20:04;94218.28;;;8.50;58.26
7335;BME280;3708;42.632;23.378;2023-03-03T03:22:31;94218.59;;;8.57;58.09
7335;BME280;3708;42.632;23.378;2023-03-03T03:24:58;94222.88;;;8.53;58.33
7335;BME280;3708;42.632;23.378;2023-03-03T03:27:25;94225.19;;;8.45;57.94
7335;BME280;3708;42.632;23.378;2023-03-03T03:29:51;94216.91;;;8.52;58.52
7335;BME280;3708;42.632;23.378;2023-03-03T03:32:18;94216.16;;;8.60;58.11
7335;BME280;3708;42.632;23.378;2023-03-03T03:34:47;94217.66;;;8.53;58.19
7335;BME280;3708;42.632;23.378;2023-03-03T03:37:13;94210.91;;;8.34;58.52
7335;BME280;3708;42.632;23.378;2023-03-03T03:39:40;94205.38;;;8.44;58.45
7335;BME280;3708;42.632;23.378;2023-03-03T03:42:07;94208.00;;;8.44;58.66
7335;BME280;3708;42.632;23.378;2023-03-03T03:44:36;94209.06;;;8.43;58.89
7335;BME280;3708;42.632;23.378;2023-03-03T03:47:02;94205.34;;;8.27;59.11
7335;BME280;3708;42.632;23.378;2023-03-03T03:49:29;94200.28;;;8.31;59.39
7335;BME280;3708;42.632;23.378;2023-03-03T03:51:57;94195.69;;;8.28;59.45
7335;BME280;3708;42.632;23.378;2023-03-03T03:54:24;94194.75;;;8.32;59.16
7335;BME280;3708;42.632;23.378;2023-03-03T03:56:51;94198.47;;;8.40;59.17
7335;BME280;3708;42.632;23.378;2023-03-03T03:59:18;94193.97;;;8.23;59.55
7335;BME280;3708;42.632;23.378;2023-03-03T04:01:45;94190.94;;;8.38;59.38
7335;BME280;3708;42.632;23.378;2023-03-03T04:04:12;94191.25;;;8.45;59.18
7335;BME280;3708;42.632;23.378;2023-03-03T04:06:39;94198.47;;;8.31;58.96
7335;BME280;3708;42.632;23.378;2023-03-03T04:09:07;94193.03;;;8.19;59.59
7335;BME280;3708;42.632;23.378;2023-03-03T04:11:34;94184.19;;;8.37;59.28
7335;BME280;3708;42.632;23.378;2023-03-03T04:14:01;94190.28;;;8.24;59.66
7335;BME280;3708;42.632;23.378;2023-03-03T04:16:27;94187.25;;;8.31;59.99
7335;BME280;3708;42.632;23.378;2023-03-03T04:18:54;94186.47;;;8.39;59.71
7335;BME280;3708;42.632;23.378;2023-03-03T04:21:21;94187.44;;;8.43;59.85
7335;BME280;3708;42.632;23.378;2023-03-03T04:23:48;94187.25;;;8.39;59.42
7335;BME280;3708;42.632;23.378;2023-03-03T04:26:16;94187.41;;;8.34;59.53
7335;BME280;3708;42.632;23.378;2023-03-03T04:28:43;94194.28;;;8.30;59.66
7335;BME280;3708;42.632;23.378;2023-03-03T04:31:10;94193.09;;;8.36;59.80
7335;BME280;3708;42.632;23.378;2023-03-03T04:33:37;94190.16;;;8.29;59.74
7335;BME280;3708;42.632;23.378;2023-03-03T04:36:04;94190.00;;;8.26;59.70
7335;BME280;3708;42.632;23.378;2023-03-03T04:38:31;94185.16;;;8.11;60.58
7335;BME280;3708;42.632;23.378;2023-03-03T04:40:58;94188.75;;;8.23;60.42
7335;BME280;3708;42.632;23.378;2023-03-03T04:43:26;94189.06;;;8.30;60.30
7335;BME280;3708;42.632;23.378;2023-03-03T04:45:53;94182.94;;;8.26;60.51
7335;BME280;3708;42.632;23.378;2023-03-03T04:48:20;94184.94;;;8.29;60.81
7335;BME280;3708;42.632;23.378;2023-03-03T04:50:47;94179.84;;;8.24;60.67
7335;BME280;3708;42.632;23.378;2023-03-03T04:53:14;94170.97;;;8.34;60.35
7335;BME280;3708;42.632;23.378;2023-03-03T04:55:41;94189.88;;;8.39;60.13
7335;BME280;3708;42.632;23.378;2023-03-03T04:58:07;94184.50;;;8.44;60.07
7335;BME280;3708;42.632;23.378;2023-03-03T05:00:36;94189.88;;;8.39;60.18
7335;BME280;3708;42.632;23.378;2023-03-03T05:03:04;94196.63;;;8.49;59.77
7335;BME280;3708;42.632;23.378;2023-03-03T05:05:30;94194.63;;;8.55;59.68
7335;BME280;3708;42.632;23.378;2023-03-03T05:07:57;94195.72;;;8.54;59.69
7335;BME280;3708;42.632;23.378;2023-03-03T05:10:24;94194.34;;;8.65;59.63
7335;BME280;3708;42.632;23.378;2023-03-03T05:12:51;94192.66;;;8.69;59.60
7335;BME280;3708;42.632;23.378;2023-03-03T05:15:18;94189.28;;;8.60;59.69
7335;BME280;3708;42.632;23.378;2023-03-03T05:17:46;94195.72;;;8.62;59.73
7335;BME280;3708;42.632;23.378;2023-03-03T05:20:13;94198.34;;;8.71;59.59
7335;BME280;3708;42.632;23.378;2023-03-03T05:22:39;94202.19;;;8.73;59.67
7335;BME280;3708;42.632;23.378;2023-03-03T05:25:07;94202.00;;;8.87;59.69
7335;BME280;3708;42.632;23.378;2023-03-03T05:27:35;94201.41;;;8.90;59.48
7335;BME280;3708;42.632;23.378;2023-03-03T05:30:02;94203.38;;;8.76;59.41
7335;BME280;3708;42.632;23.378;2023-03-03T05:32:30;94204.03;;;8.64;60.14
7335;BME280;3708;42.632;23.378;2023-03-03T05:34:58;94208.94;;;8.74;59.87
7335;BME280;3708;42.632;23.378;2023-03-03T05:37:25;94205.41;;;8.70;59.92
7335;BME280;3708;42.632;23.378;2023-03-03T05:39:51;94197.88;;;8.69;59.95
7335;BME280;3708;42.632;23.378;2023-03-03T05:42:18;94200.31;;;8.57;59.88
7335;BME280;3708;42.632;23.378;2023-03-03T05:44:46;94209.25;;;8.56;59.92
7335;BME280;3708;42.632;23.378;2023-03-03T05:47:13;94205.84;;;8.64;59.96
7335;BME280;3708;42.632;23.378;2023-03-03T05:49:40;94210.63;;;8.62;60.12
7335;BME280;3708;42.632;23.378;2023-03-03T05:52:08;94216.59;;;8.54;59.17
7335;BME280;3708;42.632;23.378;2023-03-03T05:54:35;94209.38;;;8.42;60.23
7335;BME280;3708;42.632;23.378;2023-03-03T05:57:01;94211.06;;;8.47;60.07
7335;BME280;3708;42.632;23.378;2023-03-03T05:59:28;94211.19;;;8.41;60.39
7335;BME280;3708;42.632;23.378;2023-03-03T06:01:55;94211.19;;;8.41;60.05
7335;BME280;3708;42.632;23.378;2023-03-03T06:04:22;94205.38;;;8.44;60.39
7335;BME280;3708;42.632;23.378;2023-03-03T06:06:49;94205.25;;;8.50;60.22
7335;BME280;3708;42.632;23.378;2023-03-03T06:09:17;94209.06;;;8.43;60.16
7335;BME280;3708;42.632;23.378;2023-03-03T06:11:44;94216.59;;;8.45;60.09
7335;BME280;3708;42.632;23.378;2023-03-03T06:14:11;94211.66;;;8.52;59.87
7335;BME280;3708;42.632;23.378;2023-03-03T06:16:38;94213.53;;;8.52;60.32
7335;BME280;3708;42.632;23.378;2023-03-03T06:19:05;94216.13;;;8.34;60.66
7335;BME280;3708;42.632;23.378;2023-03-03T06:21:31;94218.13;;;8.46;60.65
7335;BME280;3708;42.632;23.378;2023-03-03T06:24:03;94215.19;;;8.39;60.45
7335;BME280;3708;42.632;23.378;2023-03-03T06:26:40;94220.91;;;8.50;60.32
7335;BME280;3708;42.632;23.378;2023-03-03T06:29:10;94220.16;;;8.58;60.82
7335;BME280;3708;42.632;23.378;2023-03-03T06:31:42;94218.31;;;8.67;60.10
7335;BME280;3708;42.632;23.378;2023-03-03T06:34:10;94226.75;;;8.72;59.83
7335;BME280;3708;42.632;23.378;2023-03-03T06:36:37;94220.91;;;8.67;59.99
7335;BME280;3708;42.632;23.378;2023-03-03T06:39:03;94221.38;;;8.77;59.82
7335;BME280;3708;42.632;23.378;2023-03-03T06:41:31;94225.38;;;8.75;59.79
7335;BME280;3708;42.632;23.378;2023-03-03T06:44:00;94228.91;;;8.62;60.20
7335;BME280;3708;42.632;23.378;2023-03-03T06:46:27;94227.22;;;8.83;59.82
7335;BME280;3708;42.632;23.378;2023-03-03T06:48:54;94222.75;;;8.92;59.98
7335;BME280;3708;42.632;23.378;2023-03-03T06:51:25;94229.03;;;8.99;59.80
7335;BME280;3708;42.632;23.378;2023-03-03T06:53:56;94229.66;;;9.05;59.28
7335;BME280;3708;42.632;23.378;2023-03-03T06:56:24;94228.44;;;8.85;59.49
7335;BME280;3708;42.632;23.378;2023-03-03T06:58:53;94229.03;;;8.99;59.58
7335;BME280;3708;42.632;23.378;2023-03-03T07:01:22;94230.75;;;8.95;59.50
7335;BME280;3708;42.632;23.378;2023-03-03T07:03:49;94222.28;;;9.24;59.61
7335;BME280;3708;42.632;23.378;2023-03-03T07:06:21;94233.66;;;9.19;59.29
7335;BME280;3708;42.632;23.378;2023-03-03T07:08:49;94232.25;;;9.31;59.08
7335;BME280;3708;42.632;23.378;2023-03-03T07:11:18;94236.53;;;9.44;58.50
7335;BME280;3708;42.632;23.378;2023-03-03T07:13:47;94228.41;;;9.28;58.44
7335;BME280;3708;42.632;23.378;2023-03-03T07:16:16;94240.25;;;9.17;58.46
7335;BME280;3708;42.632;23.378;2023-03-03T07:18:49;94236.09;;;9.33;58.57
7335;BME280;3708;42.632;23.378;2023-03-03T07:21:22;94239.13;;;9.52;58.49
7335;BME280;3708;42.632;23.378;2023-03-03T07:23:52;94224.47;;;9.68;58.12
7335;BME280;3708;42.632;23.378;2023-03-03T07:26:20;94225.41;;;9.64;57.89
7335;BME280;3708;42.632;23.378;2023-03-03T07:28:53;94229.09;;;9.63;57.27
7335;BME280;3708;42.632;23.378;2023-03-03T07:31:33;94229.81;;;9.80;57.47
7335;BME280;3708;42.632;23.378;2023-03-03T07:34:13;94232.84;;;9.28;57.35
7335;BME280;3708;42.632;23.378;2023-03-03T07:36:42;94223.94;;;9.37;57.96
7335;BME280;3708;42.632;23.378;2023-03-03T07:39:30;94222.31;;;9.62;57.59
7335;BME280;3708;42.632;23.378;2023-03-03T07:42:25;94220.84;;;9.90;57.29
7335;BME280;3708;42.632;23.378;2023-03-03T07:44:54;94221.28;;;9.92;57.54
7335;BME280;3708;42.632;23.378;2023-03-03T07:47:23;94221.16;;;9.88;57.20
7335;BME280;3708;42.632;23.378;2023-03-03T07:49:53;94220.13;;;9.81;57.10
7335;BME280;3708;42.632;23.378;2023-03-03T07:52:30;94219.00;;;9.44;57.15
7335;BME280;3708;42.632;23.378;2023-03-03T07:55:21;94223.09;;;9.62;57.10
7335;BME280;3708;42.632;23.378;2023-03-03T07:57:50;94219.34;;;9.80;56.77
7335;BME280;3708;42.632;23.378;2023-03-03T08:03:25;94216.66;;;9.97;56.21
7335;BME280;3708;42.632;23.378;2023-03-03T08:05:53;94210.22;;;9.95;56.19
7335;BME280;3708;42.632;23.378;2023-03-03T08:08:28;94205.59;;;10.01;56.21
7335;BME280;3708;42.632;23.378;2023-03-03T08:10:56;94213.72;;;9.99;56.33
7335;BME280;3708;42.632;23.378;2023-03-03T08:13:27;94208.19;;;10.01;56.53
7335;BME280;3708;42.632;23.378;2023-03-03T08:16:00;94206.69;;;9.91;56.72
7335;BME280;3708;42.632;23.378;2023-03-03T08:18:29;94210.13;;;9.83;56.74
7335;BME280;3708;42.632;23.378;2023-03-03T08:21:01;94215.69;;;9.64;57.10
7335;BME280;3708;42.632;23.378;2023-03-03T08:23:30;94201.72;;;9.60;57.48
7335;BME280;3708;42.632;23.378;2023-03-03T08:25:57;94207.41;;;9.62;57.44
7335;BME280;3708;42.632;23.378;2023-03-03T08:28:24;94206.91;;;9.14;58.79
7335;BME280;3708;42.632;23.378;2023-03-03T08:30:51;94201.69;;;9.14;58.28
7335;BME280;3708;42.632;23.378;2023-03-03T08:33:18;94206.28;;;9.17;58.45
7335;BME280;3708;42.632;23.378;2023-03-03T08:35:47;94198.13;;;9.36;58.01
7335;BME280;3708;42.632;23.378;2023-03-03T08:38:18;94204.38;;;9.43;57.75
7335;BME280;3708;42.632;23.378;2023-03-03T08:40:46;94195.13;;;9.54;57.68
7335;BME280;3708;42.632;23.378;2023-03-03T08:43:14;94207.50;;;9.28;58.22
7335;BME280;3708;42.632;23.378;2023-03-03T08:45:47;94200.53;;;9.41;58.23
7335;BME280;3708;42.632;23.378;2023-03-03T08:48:16;94206.06;;;9.56;57.98
7335;BME280;3708;42.632;23.378;2023-03-03T08:50:44;94196.16;;;9.70;58.08
7335;BME280;3708;42.632;23.378;2023-03-03T08:53:13;94202.31;;;9.74;58.00
7335;BME280;3708;42.632;23.378;2023-03-03T08:55:45;94200.38;;;9.92;58.15
7335;BME280;3708;42.632;23.378;2023-03-03T08:58:16;94200.53;;;9.95;57.44
7335;BME280;3708;42.632;23.378;2023-03-03T09:00:44;94208.31;;;10.13;56.82
7335;BME280;3708;42.632;23.378;2023-03-03T09:03:11;94209.94;;;10.26;56.74
7335;BME280;3708;42.632;23.378;2023-03-03T09:05:41;94206.78;;;10.41;56.48
7335;BME280;3708;42.632;23.378;2023-03-03T09:08:09;94204.38;;;10.27;56.69
7335;BME280;3708;42.632;23.378;2023-03-03T09:10:36;94210.69;;;9.88;57.08
7335;BME280;3708;42.632;23.378;2023-03-03T09:13:11;94208.53;;;9.90;57.07
7335;BME280;3708;42.632;23.378;2023-03-03T09:15:39;94201.19;;;9.84;56.76
7335;BME280;3708;42.632;23.378;2023-03-03T09:18:13;94202.75;;;9.76;57.02
7335;BME280;3708;42.632;23.378;2023-03-03T09:20:41;94203.38;;;9.27;58.10
7335;BME280;3708;42.632;23.378;2023-03-03T09:23:30;94202.94;;;9.63;57.89
7335;BME280;3708;42.632;23.378;2023-03-03T09:26:14;94197.53;;;9.76;57.78
7335;BME280;3708;42.632;23.378;2023-03-03T09:28:47;94208.09;;;9.42;58.29
7335;BME280;3708;42.632;23.378;2023-03-03T09:31:23;94204.59;;;9.04;58.62
7335;BME280;3708;42.632;23.378;2023-03-03T09:33:50;94212.47;;;8.87;58.84
7335;BME280;3708;42.632;23.378;2023-03-03T09:36:24;94204.03;;;8.64;59.61
7335;BME280;3708;42.632;23.378;2023-03-03T09:38:54;94202.94;;;8.74;59.99
7335;BME280;3708;42.632;23.378;2023-03-03T09:44:39;94192.78;;;9.06;59.50
7335;BME280;3708;42.632;23.378;2023-03-03T09:47:29;94201.94;;;9.38;58.90
7335;BME280;3708;42.632;23.378;2023-03-03T09:50:06;94197.47;;;9.47;58.13
7335;BME280;3708;42.632;23.378;2023-03-03T09:52:40;94214.84;;;9.43;57.61
7335;BME280;3708;42.632;23.378;2023-03-03T09:55:23;94202.44;;;9.78;57.41
7335;BME280;3708;42.632;23.378;2023-03-03T09:58:07;94203.91;;;9.96;56.28
7335;BME280;3708;42.632;23.378;2023-03-03T10:00:46;94201.97;;;10.14;56.02
7335;BME280;3708;42.632;23.378;2023-03-03T10:06:22;94195.00;;;9.88;55.36
7335;BME280;3708;42.632;23.378;2023-03-03T10:09:01;94202.00;;;10.05;54.94
7335;BME280;3708;42.632;23.378;2023-03-03T10:11:37;94195.56;;;10.03;55.10
7335;BME280;3708;42.632;23.378;2023-03-03T10:14:25;94196.41;;;10.24;54.80
7335;BME280;3708;42.632;23.378;2023-03-03T10:20:05;94198.19;;;9.65;57.01
7335;BME280;3708;42.632;23.378;2023-03-03T10:22:38;94190.63;;;9.72;55.88
7335;BME280;3708;42.632;23.378;2023-03-03T10:25:22;94189.69;;;9.76;56.35
7335;BME280;3708;42.632;23.378;2023-03-03T10:28:15;94179.38;;;9.71;56.57
7335;BME280;3708;42.632;23.378;2023-03-03T10:30:52;94181.59;;;9.61;56.69
7335;BME280;3708;42.632;23.378;2023-03-03T10:33:34;94184.06;;;9.57;56.37
7335;BME280;3708;42.632;23.378;2023-03-03T10:36:13;94175.38;;;9.74;56.29
7335;BME280;3708;42.632;23.378;2023-03-03T10:39:00;94172.97;;;9.60;57.71
7335;BME280;3708;42.632;23.378;2023-03-03T10:41:42;94174.75;;;9.31;58.08
7335;BME280;3708;42.632;23.378;2023-03-03T10:44:26;94178.06;;;9.57;57.27
7335;BME280;3708;42.632;23.378;2023-03-03T10:47:09;94177.25;;;9.65;56.41
7335;BME280;3708;42.632;23.378;2023-03-03T10:49:50;94172.00;;;9.73;56.83
7335;BME280;3708;42.632;23.378;2023-03-03T10:52:30;94169.44;;;9.94;56.02
7335;BME280;3708;42.632;23.378;2023-03-03T10:55:16;94164.00;;;10.37;55.22
7335;BME280;3708;42.632;23.378;2023-03-03T10:57:54;94165.00;;;10.44;54.28
7335;BME280;3708;42.632;23.378;2023-03-03T11:00:27;94162.44;;;9.77;55.81
7335;BME280;3708;42.632;23.378;2023-03-03T11:05:59;94159.50;;;10.17;55.63
7335;BME280;3708;42.632;23.378;2023-03-03T11:08:31;94160.91;;;10.06;56.28
7335;BME280;3708;42.632;23.378;2023-03-03T11:11:08;94156.31;;;10.03;55.81
7335;BME280;3708;42.632;23.378;2023-03-03T11:13:41;94151.13;;;9.56;56.75
7335;BME280;3708;42.632;23.378;2023-03-03T11:16:31;94144.44;;;9.38;57.45
7335;BME280;3708;42.632;23.378;2023-03-03T11:19:06;94140.38;;;9.03;58.51
7335;BME280;3708;42.632;23.378;2023-03-03T11:21:41;94146.88;;;8.88;58.80
7335;BME280;3708;42.632;23.378;2023-03-03T11:24:21;94138.56;;;8.95;59.80
7335;BME280;3708;42.632;23.378;2023-03-03T11:32:55;94142.13;;;8.82;59.32
7335;BME280;3708;42.632;23.378;2023-03-03T11:35:35;94141.38;;;8.47;61.29
7335;BME280;3708;42.632;23.378;2023-03-03T11:38:23;94138.41;;;8.83;60.81
7335;BME280;3708;42.632;23.378;2023-03-03T11:40:56;94142.38;;;8.20;61.79
7335;BME280;3708;42.632;23.378;2023-03-03T11:43:29;94132.13;;;8.84;61.23
7335;BME280;3708;42.632;23.378;2023-03-03T11:46:03;94128.28;;;8.90;60.40
7335;BME280;3708;42.632;23.378;2023-03-03T11:48:37;94137.66;;;8.48;61.45
7335;BME280;3708;42.632;23.378;2023-03-03T11:51:06;94128.41;;;8.25;61.81
7335;BME280;3708;42.632;23.378;2023-03-03T11:53:56;94127.66;;;8.24;63.31
7335;BME280;3708;42.632;23.378;2023-03-03T11:56:26;94124.09;;;7.95;64.46
7335;BME280;3708;42.632;23.378;2023-03-03T11:59:04;94125.91;;;7.86;64.11
7335;BME280;3708;42.632;23.378;2023-03-03T12:01:35;94124.69;;;7.92;63.85
7335;BME280;3708;42.632;23.378;2023-03-03T12:04:09;94128.44;;;8.76;61.29
7335;BME280;3708;42.632;23.378;2023-03-03T12:06:52;94127.81;;;8.88;61.01
7335;BME280;3708;42.632;23.378;2023-03-03T12:09:38;94130.75;;;8.61;60.86
7335;BME280;3708;42.632;23.378;2023-03-03T12:12:13;94132.25;;;8.10;62.70
7335;BME280;3708;42.632;23.378;2023-03-03T12:14:54;94126.22;;;7.93;63.28
7335;BME280;3708;42.632;23.378;2023-03-03T12:17:42;94120.91;;;8.15;63.88
7335;BME280;3708;42.632;23.378;2023-03-03T12:20:16;94123.09;;;8.56;62.99
7335;BME280;3708;42.632;23.378;2023-03-03T12:23:03;94128.00;;;8.40;63.09
7335;BME280;3708;42.632;23.378;2023-03-03T12:25:38;94135.22;;;8.43;62.29
7335;BME280;3708;42.632;23.378;2023-03-03T12:28:10;94129.03;;;8.99;61.47
7335;BME280;3708;42.632;23.378;2023-03-03T12:31:03;94129.22;;;9.32;60.51
7335;BME280;3708;42.632;23.378;2023-03-03T12:33:44;94127.56;;;9.27;61.19
7335;BME280;3708;42.632;23.378;2023-03-03T12:36:24;94136.28;;;8.76;62.46
7335;BME280;3708;42.632;23.378;2023-03-03T12:39:01;94131.53;;;8.61;61.72
7335;BME280;3708;42.632;23.378;2023-03-03T12:41:36;94132.81;;;9.27;60.76
7335;BME280;3708;42.632;23.378;2023-03-03T12:44:14;94127.97;;;9.46;60.34
7335;BME280;3708;42.632;23.378;2023-03-03T12:46:50;94140.88;;;9.80;59.49
7335;BME280;3708;42.632;23.378;2023-03-03T12:49:19;94127.97;;;9.46;60.64
7335;BME280;3708;42.632;23.378;2023-03-03T12:51:54;94137.69;;;9.66;59.34
7335;BME280;3708;42.632;23.378;2023-03-03T12:54:40;94125.84;;;9.40;59.64
7335;BME280;3708;42.632;23.378;2023-03-03T12:57:18;94124.50;;;9.25;59.93
7335;BME280;3708;42.632;23.378;2023-03-03T12:59:54;94132.41;;;8.82;61.41
7335;BME280;3708;42.632;23.378;2023-03-03T13:02:37;94125.50;;;9.03;61.14
7335;BME280;3708;42.632;23.378;2023-03-03T13:05:18;94126.56;;;8.94;61.55
7335;BME280;3708;42.632;23.378;2023-03-03T13:07:54;94118.78;;;8.60;62.93
7335;BME280;3708;42.632;23.378;2023-03-03T13:10:33;94126.13;;;8.23;64.79
7335;BME280;3708;42.632;23.378;2023-03-03T13:13:08;94122.59;;;8.88;63.22
7335;BME280;3708;42.632;23.378;2023-03-03T13:15:42;94118.41;;;9.04;62.94
7335;BME280;3708;42.632;23.378;2023-03-03T13:18:24;94118.16;;;8.45;64.35
7335;BME280;3708;42.632;23.378;2023-03-03T13:20:57;94109.09;;;9.32;62.46
7335;BME280;3708;42.632;23.378;2023-03-03T13:23:37;94109.97;;;9.45;61.94
7335;BME280;3708;42.632;23.378;2023-03-03T13:26:10;94109.00;;;9.20;61.12
7335;BME280;3708;42.632;23.378;2023-03-03T13:28:48;94107.13;;;9.58;61.20
7335;BME280;3708;42.632;23.378;2023-03-03T13:31:21;94111.31;;;9.04;63.55
7335;BME280;3708;42.632;23.378;2023-03-03T13:33:53;94118.84;;;9.06;63.18
7335;BME280;3708;42.632;23.378;2023-03-03T13:36:24;94119.38;;;8.57;64.90
7335;BME280;3708;42.632;23.378;2023-03-03T13:38:55;94114.72;;;9.05;63.66
7335;BME280;3708;42.632;23.378;2023-03-03T13:41:25;94114.19;;;9.29;63.28
7335;BME280;3708;42.632;23.378;2023-03-03T13:43:58;94110.41;;;9.47;62.82
7335;BME280;3708;42.632;23.378;2023-03-03T13:46:34;94117.97;;;8.85;63.48
7335;BME280;3708;42.632;23.378;2023-03-03T13:49:17;94112.94;;;8.80;63.66
7335;BME280;3708;42.632;23.378;2023-03-03T13:51:51;94116.28;;;8.89;63.90
7335;BME280;3708;42.632;23.378;2023-03-03T13:54:39;94108.97;;;8.39;65.22
7335;BME280;3708;42.632;23.378;2023-03-03T13:57:19;94117.06;;;8.89;64.28
7335;BME280;3708;42.632;23.378;2023-03-03T13:59:58;94105.47;;;9.16;64.14
7335;BME280;3708;42.632;23.378;2023-03-03T14:02:50;94108.16;;;9.37;63.20
7335;BME280;3708;42.632;23.378;2023-03-03T14:05:25;94106.31;;;9.66;62.59
7335;BME280;3708;42.632;23.378;2023-03-03T14:07:58;94107.78;;;9.84;61.94